Pagrindinis puslapis
METAR-TAF:

METAR-TAF

Oro uostai :

Puerto Suaresas, Bolivija

platuma: 18-59S, ilguma: 057-49W, Aukštis: 134 m

Dabartinis oras

Ataskaita buvo paskelbta 10 valandos ir 56 minutes, ne 23:00 UTC
Ramus vėjas
Temperatūra 28°C
Drėgmė 70%
Slėgis 1007 hPa
Matomumas: 7000 m

METAR: SLPS 172300Z 00000KT 7000 NSC 28/22 Q1007

Laikas: 05:56 (09:56 UTC)

Prognozė

Ataskaita buvo paskelbta 5 valandos ir 56 minutes, ne 04:00 UTC
Prognozė galioja nuo 18 metu 06 UTC su 19 metu 06 UTC
Vėjas kt iš Šiaurės
Matomumas: 5000 m
dūmai
Laikinai
nuo 18 metu 15 UTC su 18 metu 18 UTC
Vėjas 12 kt iš Pietvakarių
Tapsmas
nuo 19 metu 01 UTC su 19 metu 05 UTC
Vėjas kt iš Šiaurės

TAF: SLPS 180400Z 1806/1906 00000KT 5000 FU NSC TX34/1819Z TN19/1811Z TEMPO 1815/1818 22012KT BECMG 1901/1905 00000KT

Orai ataskaitas ir orų prognozės (METAR, TAF).

turimą stotys yra geltonos ir raudonos taškus žemėlapyje.

Perkelti pele per norėdami pamatyti stoties vardą.

Tada spustelėkite, norėdami matyti oro stebėjimo ir prognozės.

Norėdami pakeisti žemėlapį: spustelėkite ant žalios mygtukų su juodo kryžiaus žemyn,; žalią mygtuką su brūkšneliu, jei norite nutolinti; arba žalių rodyklių gretimoms žemėlapius.


METAR-TAF: